createdAt,value
2022-11-29T00:00:10.896Z,101331.25
2022-11-29T00:02:46.021Z,101331.39
2022-11-29T00:04:59.815Z,101337.98
2022-11-29T00:07:12.953Z,101340.85
2022-11-29T00:09:26.261Z,101341.56
2022-11-29T00:11:57.097Z,101338.98
2022-11-29T00:14:11.442Z,101345.96
2022-11-29T00:16:24.876Z,101348.84
2022-11-29T00:18:38.063Z,101348.39
2022-11-29T00:20:51.435Z,101342.22
2022-11-29T00:23:04.817Z,101343.95
2022-11-29T00:25:18.232Z,101340.19
2022-11-29T00:27:31.450Z,101342.31
2022-11-29T00:29:44.930Z,101348.32
2022-11-29T00:31:58.385Z,101353.60
2022-11-29T00:34:13.500Z,101349.88
2022-11-29T00:36:27.448Z,101354.02
2022-11-29T00:38:40.646Z,101353.77
2022-11-29T00:40:57.245Z,101354.09
2022-11-29T00:43:10.568Z,101358.14
2022-11-29T00:45:23.900Z,101359.54
2022-11-29T00:47:37.550Z,101361.92
2022-11-29T00:49:50.770Z,101359.66
2022-11-29T00:52:04.219Z,101357.18
2022-11-29T00:54:19.222Z,101363.17
2022-11-29T00:56:32.469Z,101357.91
2022-11-29T00:58:49.854Z,101361.52
2022-11-29T01:01:03.540Z,101353.70
2022-11-29T01:03:17.284Z,101356.98
2022-11-29T01:05:30.725Z,101350.52
2022-11-29T01:07:44.656Z,101352.06
2022-11-29T01:09:59.396Z,101350.63
2022-11-29T01:12:13.066Z,101356.23
2022-11-29T01:14:26.402Z,101356.71
2022-11-29T01:16:39.983Z,101360.63
2022-11-29T01:18:53.267Z,101356.33
2022-11-29T01:21:09.435Z,101359.57
2022-11-29T01:23:22.725Z,101361.86
2022-11-29T01:25:36.034Z,101358.89
2022-11-29T01:27:49.372Z,101364.04
2022-11-29T01:30:02.945Z,101362.81
2022-11-29T01:32:20.896Z,101361.93
2022-11-29T01:34:34.654Z,101364.08
2022-11-29T01:36:47.988Z,101363.23
2022-11-29T01:39:02.989Z,101364.64
2022-11-29T01:41:21.497Z,101366.41
2022-11-29T01:43:35.331Z,101370.58
2022-11-29T01:45:49.258Z,101368.80
2022-11-29T01:48:04.406Z,101369.67
2022-11-29T01:50:18.213Z,101371.89
2022-11-29T01:52:34.847Z,101373.30
2022-11-29T01:54:50.628Z,101373.21
2022-11-29T01:57:06.234Z,101378.63
2022-11-29T01:59:22.944Z,101379.34
2022-11-29T02:01:37.025Z,101379.01
2022-11-29T02:03:50.515Z,101380.44
2022-11-29T02:06:04.398Z,101378.63
2022-11-29T02:08:20.290Z,101381.92
2022-11-29T02:10:44.243Z,101385.00
2022-11-29T02:13:04.483Z,101385.96
2022-11-29T02:15:30.964Z,101387.61
2022-11-29T02:17:58.450Z,101387.89
2022-11-29T02:20:42.569Z,101382.05
2022-11-29T02:23:00.889Z,101380.80
2022-11-29T02:25:41.672Z,101381.59
2022-11-29T02:28:33.353Z,101384.02
2022-11-29T02:31:09.271Z,101392.27
2022-11-29T02:33:55.618Z,101390.63
2022-11-29T02:36:28.262Z,101394.01
2022-11-29T02:39:12.650Z,101395.41
2022-11-29T02:41:38.937Z,101405.66
2022-11-29T02:44:11.596Z,101403.39
2022-11-29T02:46:40.394Z,101402.70
2022-11-29T02:49:03.948Z,101402.16
2022-11-29T02:51:26.175Z,101404.11
2022-11-29T02:53:46.976Z,101401.09
2022-11-29T02:56:11.489Z,101399.79
2022-11-29T02:58:34.723Z,101402.13
2022-11-29T03:00:57.029Z,101398.19
2022-11-29T03:03:18.723Z,101407.63
2022-11-29T03:05:43.775Z,101404.05
2022-11-29T03:08:04.335Z,101408.59
2022-11-29T03:10:27.055Z,101404.37
2022-11-29T03:12:48.140Z,101408.13
2022-11-29T03:15:11.996Z,101408.48
2022-11-29T03:17:39.427Z,101409.64
2022-11-29T03:20:10.487Z,101413.59
2022-11-29T03:22:34.799Z,101405.55
2022-11-29T03:24:57.305Z,101412.67
2022-11-29T03:27:16.530Z,101416.06
2022-11-29T03:29:36.210Z,101413.64
2022-11-29T03:31:56.537Z,101410.91
2022-11-29T03:34:17.364Z,101416.65
2022-11-29T03:36:39.435Z,101422.44
2022-11-29T03:38:55.651Z,101425.16
2022-11-29T03:41:18.513Z,101427.02
2022-11-29T03:43:38.340Z,101427.20
2022-11-29T03:45:59.616Z,101424.48
2022-11-29T03:48:18.343Z,101431.11
2022-11-29T03:50:37.246Z,101436.82
2022-11-29T03:52:56.983Z,101442.90
2022-11-29T03:55:23.251Z,101447.23
2022-11-29T03:57:42.360Z,101448.81
2022-11-29T04:00:03.005Z,101449.75
2022-11-29T04:02:55.903Z,101451.20
2022-11-29T04:05:40.146Z,101457.20
2022-11-29T04:08:04.720Z,101458.27
2022-11-29T04:10:29.337Z,101456.14
2022-11-29T04:13:21.384Z,101466.30
2022-11-29T04:16:09.469Z,101465.11
2022-11-29T04:18:55.980Z,101466.27
2022-11-29T04:21:37.514Z,101467.00
2022-11-29T04:24:24.946Z,101462.31
2022-11-29T04:27:03.253Z,101461.02
2022-11-29T04:29:39.705Z,101462.94
2022-11-29T04:32:25.499Z,101472.92
2022-11-29T04:35:05.170Z,101474.81
2022-11-29T04:37:52.935Z,101479.12
2022-11-29T04:40:25.815Z,101475.42
2022-11-29T04:42:58.750Z,101478.13
2022-11-29T04:46:07.863Z,101481.92
2022-11-29T04:48:54.915Z,101481.85
2022-11-29T04:51:21.333Z,101481.31
2022-11-29T04:53:51.516Z,101479.39
2022-11-29T04:56:14.151Z,101478.11
2022-11-29T04:58:35.404Z,101479.64
2022-11-29T05:00:55.532Z,101484.30
2022-11-29T05:03:17.135Z,101481.45
2022-11-29T05:05:40.074Z,101486.09
2022-11-29T05:07:56.612Z,101484.78
2022-11-29T05:10:26.396Z,101487.52
2022-11-29T05:12:49.285Z,101493.53
2022-11-29T05:15:31.347Z,101493.70
2022-11-29T05:17:58.836Z,101501.23
2022-11-29T05:20:26.756Z,101508.90
2022-11-29T05:22:52.699Z,101530.25
2022-11-29T05:25:25.265Z,101533.25
2022-11-29T05:27:50.016Z,101527.46
2022-11-29T05:30:08.998Z,101523.33
2022-11-29T05:32:39.201Z,101525.73
2022-11-29T05:35:12.013Z,101522.67
2022-11-29T05:37:41.026Z,101517.39
2022-11-29T05:40:07.161Z,101513.28
2022-11-29T05:42:38.170Z,101518.90
2022-11-29T05:44:56.370Z,101520.33
2022-11-29T05:47:11.368Z,101522.29
2022-11-29T05:49:37.318Z,101526.37
2022-11-29T05:51:57.099Z,101526.95
2022-11-29T05:54:20.764Z,101525.11
2022-11-29T05:56:45.517Z,101526.27
2022-11-29T05:59:03.617Z,101528.66
2022-11-29T06:01:26.503Z,101527.41
2022-11-29T06:03:44.937Z,101526.46
2022-11-29T06:06:02.518Z,101534.63
2022-11-29T06:08:22.107Z,101537.92
2022-11-29T06:10:39.508Z,101539.75
2022-11-29T06:13:03.480Z,101547.22
2022-11-29T06:15:43.815Z,101554.51
2022-11-29T06:18:13.302Z,101555.84
2022-11-29T06:21:01.519Z,101558.46
2022-11-29T06:23:38.743Z,101565.85
2022-11-29T06:26:04.095Z,101571.59
2022-11-29T06:28:31.529Z,101576.84
2022-11-29T06:30:56.323Z,101567.23
2022-11-29T06:33:19.274Z,101565.69
2022-11-29T06:35:47.577Z,101566.64
2022-11-29T06:38:03.749Z,101563.89
2022-11-29T06:40:20.939Z,101566.20
2022-11-29T06:42:34.111Z,101566.06
2022-11-29T06:44:49.259Z,101568.94
2022-11-29T06:47:09.829Z,101566.93
2022-11-29T06:49:29.934Z,101570.54
2022-11-29T06:51:53.896Z,101576.39
2022-11-29T06:54:19.304Z,101573.34
2022-11-29T06:56:40.699Z,101573.41
2022-11-29T06:59:01.421Z,101571.19
2022-11-29T07:01:27.200Z,101574.55
2022-11-29T07:03:53.025Z,101581.94
2022-11-29T07:06:13.334Z,101587.78
2022-11-29T07:08:28.424Z,101592.08
2022-11-29T07:10:44.199Z,101592.52
2022-11-29T07:12:58.792Z,101593.41
2022-11-29T07:15:16.043Z,101589.77
2022-11-29T07:17:37.168Z,101590.37
2022-11-29T07:20:00.853Z,101592.01
2022-11-29T07:22:22.864Z,101592.22
2022-11-29T07:24:51.648Z,101592.06
2022-11-29T07:27:18.765Z,101593.64
2022-11-29T07:29:42.357Z,101594.48
2022-11-29T07:32:04.220Z,101594.99
2022-11-29T07:34:26.781Z,101595.88
2022-11-29T07:36:52.186Z,101596.58
2022-11-29T07:39:17.569Z,101603.58
2022-11-29T07:41:40.519Z,101604.11
2022-11-29T07:44:00.938Z,101604.27
2022-11-29T07:46:14.286Z,101607.61
2022-11-29T07:48:28.140Z,101607.64
2022-11-29T07:50:41.801Z,101608.01
2022-11-29T07:52:55.353Z,101612.77
2022-11-29T07:55:10.645Z,101618.23
2022-11-29T07:57:25.420Z,101620.73
2022-11-29T07:59:38.793Z,101623.08
2022-11-29T08:01:52.295Z,101620.48
2022-11-29T08:04:05.498Z,101612.42
2022-11-29T08:06:18.839Z,101608.05
2022-11-29T08:08:32.748Z,101603.50
2022-11-29T08:10:46.195Z,101602.09
2022-11-29T08:12:59.448Z,101607.67
2022-11-29T08:15:14.746Z,101606.92
2022-11-29T08:17:28.424Z,101606.88
2022-11-29T08:19:41.684Z,101602.09
2022-11-29T08:21:55.244Z,101599.59
2022-11-29T08:24:08.876Z,101598.67
2022-11-29T08:26:28.252Z,101600.22
2022-11-29T08:28:44.611Z,101601.21
2022-11-29T08:31:03.012Z,101602.62
2022-11-29T08:33:16.312Z,101603.46
2022-11-29T08:35:29.918Z,101602.40
2022-11-29T08:37:43.263Z,101606.27
2022-11-29T08:39:57.425Z,101605.25
2022-11-29T08:42:11.568Z,101603.73
2022-11-29T08:44:25.389Z,101599.55
2022-11-29T08:47:04.359Z,101599.02
2022-11-29T08:49:18.141Z,101596.58
2022-11-29T08:51:33.016Z,101585.88
2022-11-29T08:53:47.806Z,101585.20
2022-11-29T08:56:23.578Z,101586.95
2022-11-29T08:58:39.486Z,101593.08
2022-11-29T09:00:53.274Z,101595.77
2022-11-29T09:03:24.819Z,101598.94
2022-11-29T09:05:40.146Z,101599.48
2022-11-29T09:07:53.820Z,101598.29
2022-11-29T09:10:09.465Z,101598.83
2022-11-29T09:12:22.759Z,101597.45
2022-11-29T09:14:36.089Z,101597.48
2022-11-29T09:16:49.364Z,101598.23
2022-11-29T09:19:03.002Z,101606.31
2022-11-29T09:21:17.526Z,101607.39
2022-11-29T09:23:30.778Z,101610.62
2022-11-29T09:25:44.031Z,101614.68
2022-11-29T09:27:57.393Z,101613.86
2022-11-29T09:30:11.745Z,101615.45
2022-11-29T09:32:24.865Z,101613.36
2022-11-29T09:34:38.189Z,101616.52
2022-11-29T09:36:51.372Z,101610.60
2022-11-29T09:39:05.905Z,101609.21
2022-11-29T09:41:48.712Z,101610.61
2022-11-29T09:44:11.573Z,101602.71
2022-11-29T09:46:34.170Z,101602.69
2022-11-29T09:49:14.926Z,101602.69
2022-11-29T09:51:32.963Z,101604.96
2022-11-29T09:54:06.266Z,101605.31
2022-11-29T09:56:30.448Z,101603.02
2022-11-29T09:58:49.326Z,101607.27
2022-11-29T10:01:06.483Z,101609.20
2022-11-29T10:03:27.258Z,101611.31
2022-11-29T10:05:47.770Z,101613.24
2022-11-29T10:08:07.027Z,101621.88
2022-11-29T10:10:26.426Z,101627.84
2022-11-29T10:12:44.714Z,101629.44
2022-11-29T10:15:05.202Z,101625.21
2022-11-29T10:17:36.661Z,101621.35
2022-11-29T10:19:51.675Z,101627.27
2022-11-29T10:22:11.113Z,101627.55
2022-11-29T10:24:28.712Z,101630.27
2022-11-29T10:26:42.036Z,101629.73
2022-11-29T10:28:58.717Z,101626.75
2022-11-29T10:31:23.794Z,101626.02
2022-11-29T10:33:40.746Z,101628.98
2022-11-29T10:35:56.426Z,101631.97
2022-11-29T10:40:48.127Z,101634.64
2022-11-29T10:43:02.085Z,101632.20
2022-11-29T10:45:21.689Z,101639.39
2022-11-29T10:47:35.585Z,101635.17
2022-11-29T10:49:49.741Z,101633.41
2022-11-29T10:52:03.621Z,101627.92
2022-11-29T10:54:31.857Z,101632.08
2022-11-29T10:56:47.592Z,101629.08
2022-11-29T10:59:09.228Z,101629.79
2022-11-29T11:01:23.365Z,101626.80
2022-11-29T11:03:41.251Z,101626.94
2022-11-29T11:06:06.408Z,101623.78
2022-11-29T11:08:28.118Z,101620.31
2022-11-29T11:10:42.620Z,101614.17
2022-11-29T11:13:20.405Z,101610.67
2022-11-29T11:15:36.280Z,101608.58
2022-11-29T11:18:02.501Z,101607.18
2022-11-29T11:20:27.444Z,101615.04
2022-11-29T11:22:41.909Z,101627.83
2022-11-29T11:25:03.890Z,101630.27
2022-11-29T11:27:17.602Z,101627.59
2022-11-29T11:29:35.958Z,101623.75
2022-11-29T11:31:55.014Z,101618.32
2022-11-29T11:34:28.622Z,101618.50
2022-11-29T11:36:42.491Z,101620.61
2022-11-29T11:38:59.593Z,101623.79
2022-11-29T11:41:46.201Z,101631.84
2022-11-29T11:44:07.137Z,101634.48
2022-11-29T11:46:49.133Z,101633.79
2022-11-29T11:49:02.475Z,101617.34
2022-11-29T11:51:28.246Z,101627.65
2022-11-29T11:53:45.607Z,101630.27
2022-11-29T11:56:09.449Z,101629.70
2022-11-29T11:58:25.588Z,101622.85
2022-11-29T12:01:09.395Z,101624.57
2022-11-29T12:03:44.694Z,101624.00
2022-11-29T12:06:02.939Z,101624.48
2022-11-29T12:08:18.623Z,101623.02
2022-11-29T12:10:36.084Z,101623.39
2022-11-29T12:12:52.022Z,101632.13
2022-11-29T12:15:09.719Z,101634.71
2022-11-29T12:17:31.784Z,101624.49
2022-11-29T12:19:53.040Z,101621.66
2022-11-29T12:22:12.223Z,101617.97
2022-11-29T12:24:31.011Z,101615.32
2022-11-29T12:26:57.105Z,101604.42
2022-11-29T12:29:18.329Z,101603.70
2022-11-29T12:31:56.442Z,101604.73
2022-11-29T12:34:24.430Z,101612.09
2022-11-29T12:36:45.739Z,101608.77
2022-11-29T12:39:14.954Z,101614.21
2022-11-29T12:41:40.692Z,101612.80
2022-11-29T12:44:06.356Z,101610.89
2022-11-29T12:46:27.615Z,101607.93
2022-11-29T12:48:50.282Z,101606.35
2022-11-29T12:51:12.915Z,101607.40
2022-11-29T12:53:39.283Z,101608.64
2022-11-29T12:56:00.583Z,101610.02
2022-11-29T12:58:21.462Z,101610.55
2022-11-29T13:00:42.703Z,101612.64
2022-11-29T13:03:10.456Z,101613.48
2022-11-29T13:05:40.362Z,101604.89
2022-11-29T13:08:09.604Z,101607.30
2022-11-29T13:10:40.360Z,101611.15
2022-11-29T13:12:56.455Z,101613.38
2022-11-29T13:15:14.934Z,101607.05
2022-11-29T13:17:37.840Z,101603.31
2022-11-29T13:19:54.792Z,101602.25
2022-11-29T13:22:14.749Z,101597.31
2022-11-29T13:24:39.623Z,101596.20
2022-11-29T13:26:56.222Z,101603.86
2022-11-29T13:29:10.139Z,101595.92
2022-11-29T13:31:25.071Z,101591.98
2022-11-29T13:33:45.981Z,101596.81
2022-11-29T13:36:04.822Z,101594.42
2022-11-29T13:38:26.940Z,101591.52
2022-11-29T13:40:47.072Z,101589.33
2022-11-29T13:43:07.370Z,101593.05
2022-11-29T13:45:26.294Z,101588.52
2022-11-29T13:47:50.683Z,101589.44
2022-11-29T13:50:05.571Z,101586.29
2022-11-29T13:52:38.543Z,101584.35
2022-11-29T13:54:48.990Z,101572.58
2022-11-29T13:57:11.789Z,101575.79
2022-11-29T13:59:25.345Z,101571.07
2022-11-29T14:01:51.514Z,101571.83
2022-11-29T14:04:20.054Z,101566.97
2022-11-29T14:06:41.223Z,101562.27
2022-11-29T14:09:28.541Z,101563.02
2022-11-29T14:11:47.877Z,101566.56
2022-11-29T14:14:06.798Z,101563.14
2022-11-29T14:16:28.603Z,101557.08
2022-11-29T14:19:23.079Z,101549.83
2022-11-29T14:22:14.372Z,101546.45
2022-11-29T14:24:46.927Z,101540.45
2022-11-29T14:27:01.215Z,101536.41
2022-11-29T14:29:59.849Z,101538.17
2022-11-29T14:32:28.468Z,101534.33
2022-11-29T14:34:50.256Z,101531.58
2022-11-29T14:37:09.828Z,101531.31
2022-11-29T14:39:45.166Z,101533.70
2022-11-29T14:42:07.382Z,101532.06
2022-11-29T14:44:25.365Z,101528.42
2022-11-29T14:46:39.553Z,101521.30
2022-11-29T14:49:01.120Z,101517.67
2022-11-29T14:51:19.947Z,101517.69
2022-11-29T14:53:40.407Z,101510.86
2022-11-29T14:55:53.884Z,101509.27
2022-11-29T14:58:23.634Z,101506.29
2022-11-29T15:00:45.012Z,101506.47
2022-11-29T15:03:01.031Z,101502.98
2022-11-29T15:05:20.704Z,101509.21
2022-11-29T15:07:36.366Z,101516.98
2022-11-29T15:09:53.185Z,101519.30
2022-11-29T15:12:13.378Z,101515.46
2022-11-29T15:14:35.881Z,101510.02
2022-11-29T15:17:09.151Z,101508.80
2022-11-29T15:19:53.664Z,101500.03
2022-11-29T15:22:14.365Z,101499.87
2022-11-29T15:24:28.868Z,101503.19
2022-11-29T15:26:42.703Z,101503.20
2022-11-29T15:28:55.988Z,101493.55
2022-11-29T15:31:14.587Z,101492.52
2022-11-29T15:33:29.030Z,101489.58
2022-11-29T15:35:51.147Z,101489.27
2022-11-29T15:38:04.483Z,101486.26
2022-11-29T15:40:21.784Z,101482.20
2022-11-29T15:42:45.937Z,101477.80
2022-11-29T15:44:59.609Z,101476.02
2022-11-29T15:47:28.240Z,101464.79
2022-11-29T15:49:41.602Z,101453.51
2022-11-29T15:51:58.134Z,101456.83
2022-11-29T15:54:17.323Z,101456.45
2022-11-29T15:56:38.657Z,101457.06
2022-11-29T15:58:53.581Z,101456.30
2022-11-29T16:01:07.844Z,101448.36
2022-11-29T16:03:26.986Z,101451.10
2022-11-29T16:05:42.541Z,101442.70
2022-11-29T16:07:58.404Z,101436.16
2022-11-29T16:10:20.272Z,101430.12
2022-11-29T16:12:33.584Z,101445.79
2022-11-29T16:14:57.745Z,101458.83
2022-11-29T16:17:11.469Z,101464.04
2022-11-29T16:19:29.883Z,101467.60
2022-11-29T16:21:43.261Z,101470.09
2022-11-29T16:23:56.793Z,101471.77
2022-11-29T16:26:16.982Z,101476.33
2022-11-29T16:28:33.657Z,101479.70
2022-11-29T16:30:47.429Z,101468.83
2022-11-29T16:33:02.792Z,101466.47
2022-11-29T16:35:22.927Z,101469.55
2022-11-29T16:37:43.933Z,101471.05
2022-11-29T16:40:00.537Z,101465.03
2022-11-29T16:42:26.050Z,101463.20
2022-11-29T16:45:12.004Z,101462.27
2022-11-29T16:47:27.058Z,101463.12
2022-11-29T16:49:42.536Z,101466.59
2022-11-29T16:51:57.359Z,101464.98
2022-11-29T16:54:29.776Z,101462.66
2022-11-29T16:56:44.892Z,101463.98
2022-11-29T16:59:20.780Z,101466.08
2022-11-29T17:01:34.386Z,101465.46
2022-11-29T17:03:47.660Z,101464.02
2022-11-29T17:06:01.253Z,101467.61
2022-11-29T17:08:14.626Z,101468.27
2022-11-29T17:10:30.246Z,101465.55
2022-11-29T17:12:47.954Z,101461.66
2022-11-29T17:15:01.627Z,101463.21
2022-11-29T17:17:20.160Z,101465.47
2022-11-29T17:19:35.342Z,101467.38
2022-11-29T17:21:48.853Z,101465.77
2022-11-29T17:24:02.232Z,101468.94
2022-11-29T17:26:16.511Z,101467.15
2022-11-29T17:28:29.968Z,101467.52
2022-11-29T17:30:43.350Z,101465.77
2022-11-29T17:32:56.767Z,101468.61
2022-11-29T17:35:11.298Z,101470.51
2022-11-29T17:37:24.696Z,101470.98
2022-11-29T17:39:38.825Z,101473.98
2022-11-29T17:41:52.520Z,101472.80
2022-11-29T17:44:06.666Z,101474.55
2022-11-29T17:46:21.725Z,101469.45
2022-11-29T17:48:35.387Z,101465.19
2022-11-29T17:50:50.744Z,101466.58
2022-11-29T17:53:04.021Z,101461.63
2022-11-29T17:55:20.680Z,101466.52
2022-11-29T17:57:35.345Z,101461.55
2022-11-29T17:59:48.772Z,101461.85
2022-11-29T18:02:03.200Z,101461.44
2022-11-29T18:04:16.354Z,101461.68
2022-11-29T18:06:31.270Z,101463.09
2022-11-29T18:08:48.735Z,101461.81
2022-11-29T18:11:09.012Z,101467.78
2022-11-29T18:13:22.527Z,101460.13
2022-11-29T18:15:36.507Z,101453.55
2022-11-29T18:17:49.916Z,101451.79
2022-11-29T18:20:03.302Z,101447.56
2022-11-29T18:22:16.696Z,101452.09
2022-11-29T18:24:30.108Z,101450.11
2022-11-29T18:26:43.909Z,101449.89
2022-11-29T18:28:57.742Z,101447.05
2022-11-29T18:31:16.809Z,101451.63
2022-11-29T18:33:30.669Z,101445.25
2022-11-29T18:35:44.011Z,101440.72
2022-11-29T18:38:14.808Z,101434.63
2022-11-29T18:40:28.784Z,101433.59
2022-11-29T18:42:42.582Z,101429.91
2022-11-29T18:44:58.865Z,101423.55
2022-11-29T18:47:12.274Z,101412.09
2022-11-29T18:49:26.156Z,101407.33
2022-11-29T18:51:40.040Z,101407.29
2022-11-29T18:53:53.308Z,101397.92
2022-11-29T18:56:12.769Z,101396.45
2022-11-29T18:58:26.039Z,101391.48
2022-11-29T19:00:40.259Z,101381.79
2022-11-29T19:02:54.089Z,101380.55
2022-11-29T19:05:07.588Z,101377.38
2022-11-29T19:07:21.348Z,101375.05
2022-11-29T19:09:34.619Z,101371.00
2022-11-29T19:11:47.899Z,101372.91
2022-11-29T19:14:02.275Z,101366.39
2022-11-29T19:16:17.897Z,101362.16
2022-11-29T19:18:31.085Z,101356.66
2022-11-29T19:20:44.321Z,101350.11
2022-11-29T19:23:00.497Z,101342.28
2022-11-29T19:25:15.988Z,101334.87
2022-11-29T19:27:29.411Z,101330.42
2022-11-29T19:29:42.929Z,101322.83
2022-11-29T19:31:56.365Z,101312.83
2022-11-29T19:34:10.620Z,101309.80
2022-11-29T19:36:25.604Z,101306.61
2022-11-29T19:38:40.407Z,101306.60
2022-11-29T19:40:53.833Z,101295.48
2022-11-29T19:43:07.958Z,101294.06
2022-11-29T19:45:21.458Z,101287.13
2022-11-29T19:47:34.875Z,101281.38
2022-11-29T19:49:48.708Z,101276.02
2022-11-29T19:52:02.191Z,101272.85
2022-11-29T19:54:15.803Z,101271.16
2022-11-29T19:56:30.013Z,101264.42
2022-11-29T19:58:43.475Z,101264.86
2022-11-29T20:00:57.687Z,101260.94
2022-11-29T20:03:11.066Z,101251.54
2022-11-29T20:05:24.627Z,101250.95
2022-11-29T20:07:38.064Z,101243.46
2022-11-29T20:09:51.499Z,101240.71
2022-11-29T20:12:04.927Z,101236.77
2022-11-29T20:14:18.910Z,101232.84
2022-11-29T20:16:33.132Z,101227.27
2022-11-29T20:18:51.142Z,101220.14
2022-11-29T20:21:09.779Z,101213.90
2022-11-29T20:23:23.135Z,101201.86
2022-11-29T20:25:37.611Z,101200.92
2022-11-29T20:27:50.824Z,101193.48
2022-11-29T20:30:04.208Z,101188.80
2022-11-29T20:32:18.065Z,101188.55
2022-11-29T20:34:32.865Z,101184.60
2022-11-29T20:36:56.525Z,101177.48
2022-11-29T20:39:23.154Z,101166.84
2022-11-29T20:41:42.135Z,101166.58
2022-11-29T20:44:00.349Z,101158.06
2022-11-29T20:46:14.703Z,101150.79
2022-11-29T20:48:29.835Z,101144.56
2022-11-29T20:50:46.685Z,101140.14
2022-11-29T20:53:11.260Z,101131.14
2022-11-29T20:55:24.585Z,101116.83
2022-11-29T20:57:39.656Z,101117.67
2022-11-29T20:59:52.831Z,101109.52
2022-11-29T21:02:05.997Z,101108.73
2022-11-29T21:04:23.362Z,101093.16
2022-11-29T21:06:39.668Z,101089.20
2022-11-29T21:08:53.094Z,101081.25
2022-11-29T21:11:11.424Z,101070.79
2022-11-29T21:13:26.706Z,101067.91
2022-11-29T21:15:41.170Z,101061.13
2022-11-29T21:17:55.905Z,101048.52
2022-11-29T21:20:10.613Z,101044.59
2022-11-29T21:22:29.566Z,101045.41
2022-11-29T21:24:51.481Z,101041.47
2022-11-29T21:27:05.764Z,101029.59
2022-11-29T21:29:24.702Z,101021.06
2022-11-29T21:31:39.163Z,101013.77
2022-11-29T21:33:54.596Z,101010.89
2022-11-29T21:36:08.390Z,101006.11
2022-11-29T21:38:26.077Z,101000.44
2022-11-29T21:40:39.341Z,100995.63
2022-11-29T21:42:52.585Z,100996.41
2022-11-29T21:45:08.228Z,100988.38
2022-11-29T21:47:26.763Z,100981.95
2022-11-29T21:49:40.932Z,100968.32
2022-11-29T21:51:54.187Z,100964.05
2022-11-29T21:54:07.763Z,100955.95
2022-11-29T21:56:21.086Z,100958.05
2022-11-29T21:58:35.441Z,100952.53
2022-11-29T22:00:50.281Z,100948.16
2022-11-29T22:03:04.637Z,100948.54
2022-11-29T22:05:18.114Z,100937.90
2022-11-29T22:07:31.509Z,100936.65
2022-11-29T22:09:44.820Z,100934.88
2022-11-29T22:11:59.494Z,100928.36
2022-11-29T22:14:17.557Z,100932.02
2022-11-29T22:16:31.220Z,100920.77
2022-11-29T22:18:44.671Z,100919.44
2022-11-29T22:20:58.103Z,100923.31
2022-11-29T22:23:11.432Z,100915.72
2022-11-29T22:25:24.861Z,100912.52
2022-11-29T22:27:38.206Z,100905.40
2022-11-29T22:29:51.650Z,100898.83
2022-11-29T22:32:04.996Z,100889.58
2022-11-29T22:34:18.829Z,100881.92
2022-11-29T22:36:32.183Z,100879.87
2022-11-29T22:38:46.246Z,100876.81
2022-11-29T22:41:02.195Z,100871.11
2022-11-29T22:43:15.500Z,100865.77
2022-11-29T22:45:28.838Z,100862.23
2022-11-29T22:47:42.078Z,100856.30
2022-11-29T22:49:55.385Z,100860.66
2022-11-29T22:52:08.923Z,100850.20
2022-11-29T22:54:22.132Z,100850.55
2022-11-29T22:56:37.011Z,100842.63
2022-11-29T22:58:50.522Z,100849.14
2022-11-29T23:01:11.382Z,100839.73
2022-11-29T23:03:24.909Z,100844.59
2022-11-29T23:05:39.228Z,100827.58
2022-11-29T23:07:56.910Z,100833.73
2022-11-29T23:10:11.375Z,100833.42
2022-11-29T23:12:24.619Z,100830.65
2022-11-29T23:14:38.210Z,100820.59
2022-11-29T23:16:51.626Z,100810.67
2022-11-29T23:19:05.786Z,100800.86
2022-11-29T23:21:20.587Z,100791.10
2022-11-29T23:23:34.219Z,100784.73
2022-11-29T23:25:54.216Z,100792.69
2022-11-29T23:28:07.696Z,100783.41
2022-11-29T23:30:22.299Z,100783.06
2022-11-29T23:32:35.646Z,100784.25
2022-11-29T23:34:49.347Z,100779.88
2022-11-29T23:37:02.853Z,100770.77
2022-11-29T23:39:16.195Z,100766.39
2022-11-29T23:41:29.576Z,100762.98
2022-11-29T23:43:44.281Z,100758.67
2022-11-29T23:45:58.171Z,100745.02
2022-11-29T23:48:11.808Z,100744.06
2022-11-29T23:50:25.091Z,100734.80
2022-11-29T23:52:41.405Z,100721.05
2022-11-29T23:54:54.859Z,100710.70
2022-11-29T23:57:08.786Z,100697.48
2022-11-29T23:59:22.179Z,100692.76
